Espaço - Ciências - Fenômenos Naturais
Meteógrafos Informações Meteorológicas em tempo real

Aeroporto Internacional de Guarulhos

Histórico do Tempo
Temperatura atual: 17 graus 62 F    Umidade relativa: 100 %
Velocidade do vento: 04 nós 7 Km/h    Direção: 070 graus ENE
Ajuste do altímetro ..: 1014 HPA
Visibilidade: Ótima    Tempo presente: Quase sem nuvens

Observação

Data Hora BRTTempo°CUmidadePressãoVentoVisib.
24/05 - 07:56   Quase sem nuvens 17° 100% 1014 Este-nordeste/7 km/h 8000
24/05 - 06:56   Quase sem nuvens 16° 100% 1014 Leste/12 km/h 9000
24/05 - 05:56   Quase sem nuvens 16° 100% 1013 Este-nordeste/12 km/h 7000
24/05 - 04:56   Névoa úmida 16° 100% 1014 Este-nordeste/10 km/h 5000
24/05 - 03:56   Névoa úmida 16° 100% 1014 Este-nordeste/9 km/h 4500
24/05 - 02:56   Não Disponível 17° 100% 1015 Este-nordeste/5 km/h 7000
24/05 - 01:56   Não Disponível 17° 100% 1016 Este-sudeste/3 km/h 8000
24/05 - 00:56   Não Disponível 17° 100% 1017 Norte/0 km/h 7000
23/05 - 23:56   Não Disponível 18° 93% 1017 Este-sudeste/3 km/h 8000
23/05 - 22:56   Muitas Nuvens 18° 93% 1017 Este-sudeste/5 km/h 8000
23/05 - 21:56   Céu Limpo 20° 82% 1017 Leste/5 km/h OK
23/05 - 20:56   Quase sem nuvens 20° 73% 1017 Norte/0 km/h 8000
23/05 - 19:56   Céu Limpo 19° 82% 1016 Sul-sudeste/1 km/h OK
23/05 - 18:56   Céu Limpo 20° 77% 1016 Norte/0 km/h OK
23/05 - 17:56   Céu Limpo 22° 73% 1015 Sudoeste/1 km/h OK
23/05 - 16:56   Céu Limpo 26° 41% 1015 Oeste/9 km/h OK
23/05 - 15:56   Céu Limpo 26° 44% 1015 Noroeste/10 km/h OK
23/05 - 14:56   Céu Limpo 27° 44% 1015 Oeste/9 km/h OK
23/05 - 13:56   Céu Limpo 26° 44% 1017 Oeste/16 km/h OK
23/05 - 12:56   Céu Limpo 26° 47% 1018 Oeste-noroeste/12 km/h OK
23/05 - 11:56   Céu Limpo 25° 53% 1018 Norte/5 km/h OK
23/05 - 10:56   Quase sem nuvens 21° 64% 1019 Norte/0 km/h 9000
23/05 - 09:56   Quase sem nuvens 18° 82% 1019 Este-nordeste/7 km/h 8000
23/05 - 08:56   Quase sem nuvens 16° 93% 1018 Este-nordeste/5 km/h 9000


Apolo11.com - Todos os direitos reservados - 2000 - 2019
Política de Privacidade   |     Termo de Uso e Licenciamento   |  -   Entre em Contato

"Política é a guerra sem sangue enquanto a guerra é a política com sangue" - Mao Tsé-Tung